Time;durP1;ratioP1;P1;durP2;ratioP2;P2;SDS_P1;SDS_P2;PMS_P1;PMS_P2;Temp;Humidity;BMP_temperature;BMP_pressure;BME280_temperature;BME280_humidity;BME280_pressure;Samples;Min_cycle;Max_cycle;Signal;HPM_P1;HPM_P2
2022/12/15 00:41:00;;;;;;;14.13;8.50;;;-3.40;99.90;;;;;;5117551;27;20107;-40
2022/12/15 00:43:27;;;;;;;14.82;7.60;;;-3.30;99.90;;;;;;5117668;27;20043;-44
2022/12/15 00:48:37;;;;;;;13.10;7.00;;;-3.50;99.90;;;;;;5124124;27;20050;-40
2022/12/15 00:51:03;;;;;;;11.55;6.90;;;-3.50;99.90;;;;;;5138149;27;20388;-42
2022/12/15 01:21:04;;;;;;;6.00;3.25;;;-3.40;99.90;;;;;;5116537;27;20333;-42
2022/12/15 01:23:31;;;;;;;6.97;3.20;;;-3.50;99.90;;;;;;5116814;27;20447;-42
2022/12/15 01:25:57;;;;;;;10.02;3.17;;;-3.50;99.90;;;;;;5115852;27;20058;-40
2022/12/15 01:28:23;;;;;;;5.22;3.03;;;-3.60;99.90;;;;;;5116637;27;20452;-42
2022/12/15 01:30:49;;;;;;;6.95;3.55;;;-3.50;99.90;;;;;;5116553;27;20047;-42
2022/12/15 01:33:16;;;;;;;7.20;3.53;;;-3.50;99.90;;;;;;5116294;27;20290;-41
2022/12/15 01:35:42;;;;;;;6.78;3.85;;;-3.40;99.90;;;;;;5115627;27;20493;-43
2022/12/15 01:38:09;;;;;;;16.10;4.32;;;-3.50;99.90;;;;;;5116114;27;20050;-40
2022/12/15 01:40:44;;;;;;;7.57;3.17;;;-3.50;99.90;;;;;;5116748;27;20354;-41
2022/12/15 01:43:21;;;;;;;7.03;3.35;;;-3.40;99.90;;;;;;5116709;27;20371;-41
2022/12/15 01:45:51;;;;;;;7.38;3.80;;;-3.30;99.90;;;;;;5116876;27;20047;-40
2022/12/15 01:48:24;;;;;;;7.25;3.85;;;-3.40;99.90;;;;;;5116184;27;20346;-41
2022/12/15 01:50:58;;;;;;;8.18;4.13;;;-3.40;99.90;;;;;;5098808;27;20043;-42
2022/12/15 01:53:25;;;;;;;8.38;4.30;;;-3.40;99.90;;;;;;5097885;27;20473;-39
2022/12/15 01:55:51;;;;;;;9.50;4.22;;;-3.30;99.90;;;;;;5126390;27;20438;-40
2022/12/15 01:58:19;;;;;;;6.72;4.10;;;-3.40;99.90;;;;;;5123486;27;20035;-38
2022/12/15 02:00:44;;;;;;;9.32;4.03;;;-3.40;99.90;;;;;;5137784;27;20062;-42
2022/12/15 02:03:11;;;;;;;8.68;4.50;;;-3.30;99.90;;;;;;5132727;27;20039;-41
2022/12/15 02:05:38;;;;;;;11.13;4.28;;;-3.30;99.90;;;;;;5116108;27;20055;-40
2022/12/15 02:08:04;;;;;;;7.30;4.10;;;-3.30;99.90;;;;;;5096121;27;20066;-39
2022/12/15 02:10:59;;;;;;;7.22;3.75;;;-3.30;99.90;;;;;;5116819;27;20051;-43
2022/12/15 02:13:50;;;;;;;10.38;5.47;;;-3.30;99.90;;;;;;5050078;28;20071;-43
2022/12/15 02:16:42;;;;;;;10.52;5.20;;;-3.30;99.90;;;;;;5051526;28;20146;-40
2022/12/15 02:19:17;;;;;;;10.77;4.68;;;-3.40;99.90;;;;;;5052052;28;20169;-41
2022/12/15 02:21:53;;;;;;;11.75;5.65;;;-3.40;99.90;;;;;;5052419;28;20152;-39
2022/12/15 02:24:52;;;;;;;11.15;5.40;;;-3.40;99.90;;;;;;5052390;28;20380;-40
2022/12/15 02:27:45;;;;;;;13.48;5.72;;;-3.30;99.90;;;;;;5051170;28;20051;-41
2022/12/15 02:30:25;;;;;;;14.95;6.05;;;-3.40;99.90;;;;;;5035121;28;20664;-41
2022/12/15 02:33:10;;;;;;;12.73;6.53;;;-3.40;99.90;;;;;;5051961;28;20091;-45
2022/12/15 02:35:53;;;;;;;12.43;7.72;;;-3.40;99.90;;;;;;5034770;28;20502;-44
2022/12/15 02:38:31;;;;;;;8.65;5.05;;;-3.30;99.90;;;;;;5034867;28;20048;-40
2022/12/15 02:40:58;;;;;;;13.40;5.57;;;-3.30;99.90;;;;;;5052342;28;20218;-40
2022/12/15 02:43:25;;;;;;;9.65;5.38;;;-3.20;99.90;;;;;;5036119;28;20099;-39
2022/12/15 02:45:56;;;;;;;12.38;6.22;;;-3.10;99.90;;;;;;5052073;28;20095;-43
2022/12/15 02:49:00;;;;;;;8.75;5.95;;;-3.10;99.90;;;;;;5052084;28;20090;-42
2022/12/15 02:52:06;;;;;;;13.93;6.72;;;-3.00;99.90;;;;;;5013101;28;20065;-44
2022/12/15 02:54:44;;;;;;;15.38;6.65;;;-2.90;99.90;;;;;;5026753;28;20061;-42
2022/12/15 02:57:24;;;;;;;14.05;6.22;;;-2.80;99.90;;;;;;5011310;28;20497;-40
2022/12/15 03:00:00;;;;;;;12.20;7.10;;;-2.80;99.90;;;;;;5025576;28;20113;-43
2022/12/15 03:02:29;;;;;;;14.52;6.43;;;-2.60;99.90;;;;;;4996074;28;20535;-42
2022/12/15 03:04:56;;;;;;;13.75;6.88;;;-2.60;99.90;;;;;;5012365;28;20423;-43
2022/12/15 03:07:26;;;;;;;11.25;6.15;;;-2.60;99.90;;;;;;5010803;28;20121;-42
2022/12/15 03:09:57;;;;;;;12.02;5.95;;;-2.70;99.90;;;;;;5011200;28;20064;-45
2022/12/15 03:12:22;;;;;;;13.55;6.43;;;-2.60;99.90;;;;;;5011689;28;20060;-45
2022/12/15 03:14:48;;;;;;;14.93;5.90;;;-2.60;99.90;;;;;;5011586;28;20057;-40
2022/12/15 03:17:14;;;;;;;10.88;6.18;;;-2.60;99.90;;;;;;5010320;28;20057;-39
2022/12/15 03:19:40;;;;;;;11.15;5.93;;;-2.70;99.90;;;;;;5013432;28;20045;-42
2022/12/15 03:22:05;;;;;;;12.45;6.28;;;-2.50;99.90;;;;;;5027918;28;20053;-40
2022/12/15 03:24:31;;;;;;;12.88;7.15;;;-2.60;99.90;;;;;;5028217;28;20054;-44
2022/12/15 03:26:57;;;;;;;13.15;6.28;;;-2.40;99.90;;;;;;5028874;28;20052;-41
2022/12/15 03:29:22;;;;;;;11.05;6.05;;;-2.50;99.90;;;;;;5094333;28;20112;-42
2022/12/15 03:31:48;;;;;;;13.13;6.30;;;-2.40;99.90;;;;;;5128685;27;20459;-41
2022/12/15 03:34:14;;;;;;;9.43;5.95;;;-2.20;99.90;;;;;;5132460;27;20323;-40
2022/12/15 03:36:39;;;;;;;11.80;6.53;;;-2.30;99.90;;;;;;5098948;27;20047;-41
2022/12/15 03:39:05;;;;;;;14.27;6.20;;;-2.10;99.90;;;;;;5125235;27;20038;-43
2022/12/15 03:41:31;;;;;;;16.05;6.43;;;-2.10;99.90;;;;;;5140048;27;20035;-41
2022/12/15 03:43:57;;;;;;;11.75;6.55;;;-2.10;99.90;;;;;;5133464;27;20404;-40
2022/12/15 03:46:22;;;;;;;14.65;6.65;;;-2.10;99.90;;;;;;5131333;27;20741;-41
2022/12/15 03:48:49;;;;;;;12.52;6.40;;;-1.90;99.90;;;;;;5125845;27;20374;-40
2022/12/15 03:51:15;;;;;;;10.35;5.10;;;-1.90;99.90;;;;;;5125002;27;20050;-42
2022/12/15 03:53:40;;;;;;;10.60;5.60;;;-1.90;99.90;;;;;;5126145;27;20437;-40
2022/12/15 03:56:06;;;;;;;9.70;5.47;;;-2.00;99.90;;;;;;5129800;27;20072;-45
2022/12/15 03:58:32;;;;;;;14.82;6.50;;;-2.10;99.90;;;;;;5125258;27;20038;-43
2022/12/15 04:00:57;;;;;;;10.88;5.18;;;-2.00;99.90;;;;;;5126021;27;20039;-45
2022/12/15 04:03:23;;;;;;;9.73;4.97;;;-2.20;99.90;;;;;;5119848;27;20138;-46
2022/12/15 04:05:49;;;;;;;9.70;5.00;;;-2.10;99.90;;;;;;5138188;27;20058;-41
2022/12/15 04:08:15;;;;;;;9.95;5.30;;;-2.20;99.90;;;;;;5131708;27;20100;-42
2022/12/15 04:10:42;;;;;;;13.10;5.93;;;-2.30;99.90;;;;;;5117842;27;20513;-41
2022/12/15 04:13:10;;;;;;;9.73;5.90;;;-2.30;99.90;;;;;;5110087;27;20038;-44
2022/12/15 04:15:38;;;;;;;8.48;4.80;;;-2.40;99.90;;;;;;5138843;27;20045;-41
2022/12/15 04:18:06;;;;;;;7.38;4.90;;;-2.50;99.90;;;;;;5117568;27;20435;-45
2022/12/15 04:20:32;;;;;;;12.13;4.90;;;-2.60;99.90;;;;;;5117910;27;20047;-42
2022/12/15 04:22:59;;;;;;;11.73;5.03;;;-2.60;99.90;;;;;;5108063;27;20069;-42
2022/12/15 05:31:51;;;;;;;13.88;7.63;;;-3.00;99.90;;;;;;5116400;27;20047;-41
2022/12/15 05:34:28;;;;;;;17.00;9.68;;;-3.00;99.90;;;;;;5116401;27;20056;-48
2022/12/15 05:36:56;;;;;;;19.75;12.27;;;-2.90;99.90;;;;;;5096439;27;20054;-40
2022/12/15 05:39:22;;;;;;;20.75;12.73;;;-2.80;99.90;;;;;;5116698;27;20054;-46
2022/12/15 05:41:52;;;;;;;24.48;13.95;;;-2.80;99.90;;;;;;5097335;27;20608;-42
2022/12/15 05:44:18;;;;;;;25.00;14.63;;;-2.70;99.90;;;;;;5116130;27;20561;-43
2022/12/15 05:46:45;;;;;;;26.80;15.82;;;-2.50;99.90;;;;;;5118411;27;20050;-39
2022/12/15 05:49:16;;;;;;;23.05;15.60;;;-2.60;99.90;;;;;;5137092;27;20476;-40
2022/12/15 05:51:43;;;;;;;28.67;16.92;;;-2.20;99.90;;;;;;5113397;27;20497;-41
2022/12/15 05:54:11;;;;;;;24.50;16.42;;;-2.10;99.90;;;;;;5116259;27;20054;-40
2022/12/15 05:56:37;;;;;;;25.63;16.65;;;-2.20;99.90;;;;;;5109832;27;20123;-41
2022/12/15 05:59:04;;;;;;;30.73;17.33;;;-1.90;99.90;;;;;;5097742;27;20051;-45
2022/12/15 06:01:30;;;;;;;26.35;15.55;;;-1.80;99.90;;;;;;5129856;27;20068;-48
2022/12/15 06:03:57;;;;;;;27.10;16.23;;;-1.70;99.90;;;;;;5116573;27;20688;-42
2022/12/15 06:06:23;;;;;;;24.90;16.20;;;-1.80;99.90;;;;;;5114945;27;20106;-42
2022/12/15 06:08:49;;;;;;;28.27;15.70;;;-1.50;99.90;;;;;;5096976;27;20497;-41
2022/12/15 06:11:16;;;;;;;25.92;14.93;;;-1.50;99.90;;;;;;5097041;27;20548;-42
2022/12/15 06:13:42;;;;;;;23.05;13.93;;;-1.60;99.90;;;;;;5116147;27;20035;-43
2022/12/15 06:16:14;;;;;;;25.45;14.55;;;-1.50;99.90;;;;;;5115008;27;20485;-42
2022/12/15 06:18:42;;;;;;;26.83;14.65;;;-1.40;99.90;;;;;;5115702;27;20544;-42
2022/12/15 06:21:26;;;;;;;30.33;14.60;;;-1.30;99.90;;;;;;5115743;27;20050;-41
2022/12/15 06:23:52;;;;;;;24.95;15.30;;;-1.30;99.90;;;;;;5115334;27;20107;-43
2022/12/15 06:26:25;;;;;;;23.00;14.73;;;-1.40;99.90;;;;;;5114657;27;20051;-44
2022/12/15 06:28:51;;;;;;;22.57;14.87;;;-1.20;99.90;;;;;;5115151;27;20079;-44
2022/12/15 06:31:24;;;;;;;22.23;14.52;;;-1.30;99.90;;;;;;5115502;27;20047;-42
2022/12/15 06:33:53;;;;;;;24.95;15.50;;;-1.20;99.90;;;;;;5115218;27;20050;-42
2022/12/15 06:36:18;;;;;;;24.38;14.63;;;-1.10;99.90;;;;;;5125290;27;20078;-41
2022/12/15 06:38:45;;;;;;;22.75;13.68;;;-1.10;99.90;;;;;;5132391;27;20493;-41
2022/12/15 06:41:14;;;;;;;19.95;13.55;;;-1.10;99.90;;;;;;5116135;27;20488;-40
2022/12/15 06:43:40;;;;;;;21.13;13.23;;;-1.00;99.90;;;;;;5133966;27;20866;-47
2022/12/15 06:46:07;;;;;;;43.63;14.25;;;-1.10;99.90;;;;;;5135160;27;20485;-41
2022/12/15 06:48:34;;;;;;;24.20;12.80;;;-1.30;99.90;;;;;;5116505;27;20043;-44
2022/12/15 06:51:07;;;;;;;20.67;12.27;;;-1.20;99.90;;;;;;5127641;27;20540;-44
2022/12/15 06:53:36;;;;;;;25.23;12.77;;;-1.30;99.90;;;;;;5124070;27;20035;-40
2022/12/15 06:56:05;;;;;;;20.63;12.20;;;-1.30;99.90;;;;;;5130745;27;20046;-44
2022/12/15 06:58:31;;;;;;;21.23;12.77;;;-1.40;99.90;;;;;;5139551;27;20031;-41
2022/12/15 07:00:56;;;;;;;22.92;12.98;;;-1.50;99.90;;;;;;5140317;27;20043;-43
2022/12/15 07:03:22;;;;;;;19.08;12.63;;;-1.30;99.90;;;;;;5134800;27;20496;-42
2022/12/15 07:05:48;;;;;;;22.83;12.30;;;-1.30;99.90;;;;;;5131367;27;20114;-44
2022/12/15 07:08:15;;;;;;;19.50;11.70;;;-1.40;99.90;;;;;;5126137;27;20381;-42
2022/12/15 07:10:42;;;;;;;18.05;11.82;;;-1.30;99.90;;;;;;5127480;27;20042;-41
2022/12/15 07:13:12;;;;;;;23.45;12.15;;;-1.40;99.90;;;;;;5135361;27;20088;-40
2022/12/15 07:15:39;;;;;;;19.35;12.30;;;-1.40;99.90;;;;;;5127066;27;20051;-43
2022/12/15 07:18:05;;;;;;;20.00;12.55;;;-1.50;99.90;;;;;;5134463;27;20218;-43
2022/12/15 07:20:31;;;;;;;20.27;11.45;;;-1.60;99.90;;;;;;5119006;27;20043;-43
2022/12/15 07:22:57;;;;;;;18.45;12.77;;;-1.70;99.90;;;;;;5126961;27;20039;-40
2022/12/15 07:25:23;;;;;;;18.17;11.32;;;-1.70;99.90;;;;;;5127310;27;20302;-43
2022/12/15 07:27:48;;;;;;;25.60;12.38;;;-1.50;99.90;;;;;;5138534;27;20042;-42
2022/12/15 07:30:16;;;;;;;25.38;12.25;;;-1.70;99.90;;;;;;5123812;27;20588;-43
2022/12/15 07:32:43;;;;;;;27.33;12.10;;;-1.60;99.90;;;;;;5134152;27;20118;-43
2022/12/15 07:35:09;;;;;;;16.70;10.68;;;-1.60;99.90;;;;;;5131597;27;20046;-41
2022/12/15 07:37:35;;;;;;;17.08;11.07;;;-1.70;99.90;;;;;;5125300;27;20042;-43
2022/12/15 07:40:02;;;;;;;17.75;11.45;;;-1.80;99.90;;;;;;5125677;27;20066;-44
2022/12/15 07:42:31;;;;;;;15.27;11.70;;;-1.80;99.90;;;;;;5129300;27;20509;-41
2022/12/15 07:44:57;;;;;;;15.05;11.57;;;-1.70;99.90;;;;;;5116709;27;20190;-42
2022/12/15 07:47:23;;;;;;;17.85;11.90;;;-1.80;99.90;;;;;;5097535;27;20122;-42
2022/12/15 07:49:49;;;;;;;24.67;12.85;;;-1.70;99.90;;;;;;5117411;27;20042;-41
2022/12/15 07:52:15;;;;;;;20.25;12.65;;;-1.70;99.90;;;;;;5117280;27;20112;-39
2022/12/15 07:54:40;;;;;;;21.58;13.40;;;-1.70;99.90;;;;;;5130693;27;20074;-42
2022/12/15 07:57:06;;;;;;;22.17;13.77;;;-1.70;99.90;;;;;;5128668;27;20146;-44
2022/12/15 07:59:35;;;;;;;22.40;13.40;;;-1.70;99.90;;;;;;5120816;27;20119;-41
2022/12/15 08:02:02;;;;;;;21.23;13.20;;;-1.70;99.90;;;;;;5124021;27;20133;-42
2022/12/15 08:04:31;;;;;;;17.38;12.27;;;-1.80;99.90;;;;;;5129916;27;20126;-41
2022/12/15 08:06:57;;;;;;;22.38;14.00;;;-1.60;99.90;;;;;;5134221;27;20117;-40
2022/12/15 08:09:23;;;;;;;18.48;12.40;;;-1.50;99.90;;;;;;5119935;27;20536;-41
2022/12/15 08:11:49;;;;;;;21.63;12.90;;;-1.40;99.90;;;;;;5116553;27;20523;-40
2022/12/15 08:14:16;;;;;;;17.90;12.05;;;-1.50;99.90;;;;;;5118494;27;20031;-40
2022/12/15 08:16:41;;;;;;;21.63;12.70;;;-1.30;99.90;;;;;;5115092;27;20047;-40
2022/12/15 08:19:11;;;;;;;22.27;12.55;;;-1.20;99.90;;;;;;5119141;27;20050;-42
2022/12/15 08:21:39;;;;;;;22.17;12.20;;;-1.30;99.90;;;;;;5107896;27;20380;-40
2022/12/15 08:24:05;;;;;;;17.73;12.00;;;-1.20;99.90;;;;;;5123385;27;20035;-41
2022/12/15 08:26:31;;;;;;;19.55;11.95;;;-1.20;99.90;;;;;;5129830;27;20047;-43
2022/12/15 08:28:59;;;;;;;20.08;11.43;;;-1.20;99.90;;;;;;5117501;27;20385;-40
2022/12/15 08:31:25;;;;;;;19.33;12.02;;;-1.20;99.90;;;;;;5117036;27;20126;-41
2022/12/15 08:33:51;;;;;;;19.35;11.63;;;-1.30;99.90;;;;;;5116474;27;20497;-45
2022/12/15 08:36:18;;;;;;;19.65;11.82;;;-1.30;99.90;;;;;;5129744;27;20051;-43
2022/12/15 08:38:45;;;;;;;20.33;12.02;;;-1.40;99.90;;;;;;5116759;27;20068;-40
2022/12/15 08:41:14;;;;;;;19.15;12.02;;;-1.30;99.90;;;;;;5130642;27;20106;-44
2022/12/15 08:43:41;;;;;;;18.23;11.43;;;-1.30;99.90;;;;;;5117178;27;20047;-42
2022/12/15 08:46:07;;;;;;;19.15;12.30;;;-1.20;99.90;;;;;;5121047;27;20042;-42
2022/12/15 08:48:34;;;;;;;20.95;12.13;;;-1.20;99.90;;;;;;5131407;27;20338;-42
2022/12/15 08:51:00;;;;;;;17.67;12.88;;;-1.20;99.90;;;;;;5121694;27;20288;-43
2022/12/15 08:53:26;;;;;;;19.77;12.38;;;-1.20;99.90;;;;;;5115781;27;20494;-40
2022/12/15 08:55:51;;;;;;;22.02;12.50;;;-1.20;99.90;;;;;;5122526;27;20393;-43
2022/12/15 08:58:17;;;;;;;21.85;12.77;;;-1.20;99.90;;;;;;5106713;27;21300;-44
2022/12/15 09:00:44;;;;;;;21.02;13.60;;;-1.20;99.90;;;;;;5124542;27;20043;-44
2022/12/15 09:03:09;;;;;;;21.38;13.20;;;-1.20;99.90;;;;;;5128176;27;20066;-41
2022/12/15 09:05:36;;;;;;;17.75;12.90;;;-1.10;99.90;;;;;;5111041;27;20155;-42
2022/12/15 09:08:02;;;;;;;23.30;14.23;;;-1.10;99.90;;;;;;5127761;27;20085;-45
2022/12/15 09:10:29;;;;;;;22.58;12.38;;;-1.20;99.90;;;;;;5119361;27;20684;-41
2022/12/15 09:12:54;;;;;;;19.92;13.50;;;-1.00;99.90;;;;;;5131293;27;20046;-40
2022/12/15 09:15:20;;;;;;;23.73;12.98;;;-1.00;99.90;;;;;;5098278;27;20047;-41
2022/12/15 09:17:46;;;;;;;20.80;14.45;;;-1.00;99.90;;;;;;5092619;27;20073;-42
2022/12/15 09:20:13;;;;;;;19.40;12.98;;;-1.00;99.90;;;;;;5109026;27;20042;-44
2022/12/15 09:22:40;;;;;;;18.25;12.52;;;-0.90;99.90;;;;;;5111084;27;20158;-43
2022/12/15 09:25:06;;;;;;;18.85;13.27;;;-0.80;99.90;;;;;;5112909;27;20054;-46
2022/12/15 09:27:33;;;;;;;19.23;13.48;;;-0.70;99.90;;;;;;5111254;27;20039;-40
2022/12/15 09:29:59;;;;;;;21.67;13.48;;;-0.80;99.90;;;;;;5117094;27;20130;-42
2022/12/15 09:32:25;;;;;;;22.38;13.68;;;-0.70;99.90;;;;;;5130160;27;20050;-40
2022/12/15 09:34:51;;;;;;;23.25;14.73;;;-0.70;99.90;;;;;;5123390;27;20435;-46
2022/12/15 09:37:17;;;;;;;22.67;14.60;;;-0.80;99.90;;;;;;5136283;27;20312;-45
2022/12/15 09:39:43;;;;;;;19.38;12.48;;;-0.80;99.90;;;;;;5101396;27;20055;-43
2022/12/15 09:42:26;;;;;;;21.25;13.63;;;-0.80;99.90;;;;;;5106656;27;20050;-42
2022/12/15 09:45:01;;;;;;;24.15;14.77;;;-0.60;99.90;;;;;;5113761;27;20486;-41
2022/12/15 09:47:33;;;;;;;20.02;12.80;;;-0.50;99.90;;;;;;5106476;27;20051;-42
2022/12/15 09:50:03;;;;;;;20.60;14.23;;;-0.60;99.90;;;;;;5119221;27;20046;-46
2022/12/15 09:52:32;;;;;;;19.48;14.15;;;-0.50;99.90;;;;;;5115366;27;20058;-46
2022/12/15 09:54:58;;;;;;;24.30;14.60;;;-0.40;99.90;;;;;;5113365;27;20538;-42
2022/12/15 09:57:34;;;;;;;24.17;15.13;;;-0.60;99.90;;;;;;5111706;27;20552;-42
2022/12/15 10:00:06;;;;;;;23.92;14.52;;;-0.60;99.90;;;;;;5121239;27;20053;-43
2022/12/15 10:03:05;;;;;;;23.10;14.63;;;-0.40;99.90;;;;;;5115261;27;20082;-41
2022/12/15 10:05:41;;;;;;;25.98;14.38;;;-0.50;99.90;;;;;;5114481;27;20062;-41
2022/12/15 10:08:07;;;;;;;24.02;14.30;;;-0.50;99.90;;;;;;5115311;27;20058;-43
2022/12/15 10:10:42;;;;;;;26.00;14.70;;;-0.40;99.90;;;;;;5115884;27;20039;-43
2022/12/15 10:13:40;;;;;;;27.33;13.48;;;-0.40;99.90;;;;;;5118725;27;20563;-41
2022/12/15 10:16:38;;;;;;;21.23;14.90;;;-0.40;99.90;;;;;;5030495;28;20052;-42
2022/12/15 10:19:12;;;;;;;22.42;14.15;;;-0.40;99.90;;;;;;5011180;28;20107;-45
2022/12/15 10:21:38;;;;;;;22.30;14.35;;;-0.20;99.90;;;;;;5011777;28;20057;-41
2022/12/15 10:24:18;;;;;;;19.98;13.50;;;-0.10;99.90;;;;;;5011988;28;20050;-44
2022/12/15 10:26:55;;;;;;;19.75;13.32;;;-0.20;99.90;;;;;;5022948;28;20111;-46
2022/12/15 10:29:45;;;;;;;25.25;13.43;;;-0.20;99.90;;;;;;5029590;28;20045;-44
2022/12/15 10:32:40;;;;;;;23.20;13.00;;;-0.10;99.90;;;;;;5022814;28;20495;-46
2022/12/15 10:35:19;;;;;;;21.40;13.30;;;0.00;99.90;;;;;;5025799;28;20048;-43
2022/12/15 10:37:45;;;;;;;25.33;13.70;;;0.10;99.90;;;;;;5035390;28;20049;-42
2022/12/15 10:40:17;;;;;;;15.40;12.25;;;0.00;99.90;;;;;;5035653;28;20061;-45
2022/12/15 10:42:48;;;;;;;19.88;12.85;;;0.10;99.90;;;;;;5018651;28;20057;-44
2022/12/15 10:45:32;;;;;;;19.15;12.35;;;0.20;99.90;;;;;;5018302;28;20083;-40
2022/12/15 10:47:58;;;;;;;16.98;11.18;;;0.20;99.90;;;;;;5036000;28;20049;-44
2022/12/15 10:50:24;;;;;;;21.55;11.55;;;0.30;99.90;;;;;;5035278;28;20052;-40
2022/12/15 10:52:50;;;;;;;17.60;11.40;;;0.20;99.90;;;;;;5071976;27;20893;-42
2022/12/15 10:55:37;;;;;;;18.92;11.77;;;0.30;99.90;;;;;;5115286;27;20088;-45
2022/12/15 10:58:15;;;;;;;17.70;10.70;;;0.30;99.90;;;;;;5128988;27;20153;-44
2022/12/15 11:00:41;;;;;;;17.88;13.18;;;0.40;99.90;;;;;;5121772;27;20567;-44
2022/12/15 11:03:22;;;;;;;18.05;11.13;;;0.40;99.90;;;;;;5130941;27;20129;-41
2022/12/15 11:05:53;;;;;;;17.17;10.93;;;0.60;99.90;;;;;;5119255;27;20039;-46
2022/12/15 11:08:21;;;;;;;19.05;12.55;;;0.60;99.90;;;;;;5134325;27;20540;-41
2022/12/15 11:13:34;;;;;;;23.48;12.52;;;0.60;99.90;;;;;;5124227;27;20384;-42
2022/12/15 11:16:15;;;;;;;20.20;13.45;;;0.70;99.90;;;;;;5128295;27;20051;-44
2022/12/15 11:18:44;;;;;;;24.35;13.45;;;0.70;99.90;;;;;;5119354;27;20366;-43
2022/12/15 11:21:31;;;;;;;20.00;11.60;;;0.70;99.90;;;;;;5132644;27;20046;-43
2022/12/15 11:24:11;;;;;;;16.58;11.80;;;0.70;99.90;;;;;;5130461;27;20449;-43
2022/12/15 11:26:49;;;;;;;18.83;13.27;;;0.90;99.90;;;;;;5118449;27;20110;-43
2022/12/15 11:29:42;;;;;;;16.75;11.60;;;0.80;99.90;;;;;;5119367;27;20054;-43
2022/12/15 11:32:11;;;;;;;19.75;11.38;;;0.90;99.90;;;;;;5119179;27;20660;-41
2022/12/15 11:34:42;;;;;;;19.17;11.68;;;1.00;99.90;;;;;;5118491;27;20273;-43
2022/12/15 11:37:48;;;;;;;19.25;11.43;;;1.00;99.90;;;;;;5118177;27;20496;-42
2022/12/15 11:40:38;;;;;;;17.27;10.80;;;1.00;99.90;;;;;;5064464;28;20059;-43
2022/12/15 11:43:37;;;;;;;19.35;11.10;;;1.10;99.90;;;;;;5074477;28;20052;-48
2022/12/15 11:46:19;;;;;;;22.63;10.35;;;1.20;99.90;;;;;;5073870;28;20040;-46
2022/12/15 11:48:57;;;;;;;20.58;10.25;;;1.20;99.90;;;;;;5074231;28;20043;-40
2022/12/15 11:51:42;;;;;;;20.88;11.13;;;1.20;99.90;;;;;;5067501;28;20142;-46
2022/12/15 11:54:28;;;;;;;16.95;12.05;;;1.30;99.90;;;;;;5065915;28;20055;-43
2022/12/15 11:57:18;;;;;;;20.60;11.02;;;1.30;99.90;;;;;;5067783;28;20138;-44
2022/12/15 11:59:48;;;;;;;19.63;11.93;;;1.20;99.90;;;;;;5063874;28;20044;-41
2022/12/15 12:02:19;;;;;;;16.98;11.30;;;1.30;99.90;;;;;;5053023;28;20040;-42
2022/12/15 12:05:04;;;;;;;20.30;10.73;;;1.30;99.90;;;;;;5072903;28;20120;-42
2022/12/15 12:08:23;;;;;;;19.80;11.52;;;1.30;99.90;;;;;;5072618;28;20084;-46
2022/12/15 12:11:07;;;;;;;19.45;11.77;;;1.30;99.90;;;;;;5015451;28;20972;-41
2022/12/15 12:13:41;;;;;;;17.90;11.73;;;1.30;99.90;;;;;;5012247;28;20053;-45
2022/12/15 12:16:19;;;;;;;19.88;12.60;;;1.30;99.90;;;;;;5030137;28;20056;-41
2022/12/15 12:18:51;;;;;;;19.27;12.07;;;1.40;99.90;;;;;;5052741;28;20141;-41
2022/12/15 12:21:25;;;;;;;20.67;11.50;;;1.40;99.90;;;;;;5037522;28;20076;-42
2022/12/15 12:24:24;;;;;;;13.30;10.50;;;1.40;99.90;;;;;;5047770;28;20056;-46
2022/12/15 12:27:19;;;;;;;15.88;11.38;;;1.50;99.90;;;;;;5036256;28;20053;-41
2022/12/15 12:29:50;;;;;;;17.73;10.18;;;1.50;99.90;;;;;;4992270;28;20046;-44
2022/12/15 12:32:39;;;;;;;16.13;10.77;;;1.60;99.90;;;;;;4993115;28;20096;-44
2022/12/15 12:35:29;;;;;;;13.82;9.18;;;1.60;99.90;;;;;;4980437;28;20058;-44
2022/12/15 12:38:01;;;;;;;16.65;9.25;;;1.60;99.90;;;;;;4978668;28;20464;-41
2022/12/15 12:40:39;;;;;;;17.50;10.60;;;1.70;99.90;;;;;;4975818;28;20824;-41
2022/12/15 12:43:05;;;;;;;13.45;9.25;;;1.70;99.90;;;;;;4980602;28;20445;-42
2022/12/15 12:45:40;;;;;;;14.30;8.27;;;1.70;99.90;;;;;;5014290;28;20061;-44
2022/12/15 12:48:15;;;;;;;17.35;9.43;;;1.80;99.90;;;;;;5016023;28;20057;-45
2022/12/15 12:50:41;;;;;;;13.68;9.85;;;1.80;99.90;;;;;;5030337;28;20158;-43
2022/12/15 12:53:33;;;;;;;21.45;8.95;;;1.80;99.90;;;;;;5018448;28;20601;-43
2022/12/15 12:55:59;;;;;;;14.13;10.23;;;1.90;99.90;;;;;;5025056;28;20981;-47
2022/12/15 12:58:40;;;;;;;13.65;8.98;;;1.90;99.90;;;;;;5032061;28;20838;-43
2022/12/15 13:01:24;;;;;;;13.63;8.45;;;1.90;99.90;;;;;;5030921;28;20060;-43
2022/12/15 13:04:11;;;;;;;14.82;10.13;;;1.90;99.90;;;;;;5029277;28;20081;-42
2022/12/15 13:06:40;;;;;;;15.80;9.68;;;1.90;99.90;;;;;;5056013;27;20116;-41
2022/12/15 13:09:20;;;;;;;16.23;9.18;;;2.00;99.90;;;;;;5111010;27;20476;-46
2022/12/15 13:11:52;;;;;;;15.60;8.82;;;1.90;99.90;;;;;;5118149;27;20218;-46
2022/12/15 13:14:39;;;;;;;14.65;9.43;;;1.80;99.90;;;;;;5115681;27;20054;-42
2022/12/15 13:17:16;;;;;;;15.57;10.90;;;1.80;99.90;;;;;;5096989;27;20153;-45
2022/12/15 13:19:57;;;;;;;18.70;12.38;;;1.80;99.90;;;;;;5130900;27;20038;-43
2022/12/15 13:22:30;;;;;;;19.75;12.35;;;1.80;99.90;;;;;;5137722;27;20039;-45
2022/12/15 13:24:56;;;;;;;18.57;12.27;;;1.90;99.90;;;;;;5121071;27;20409;-44
2022/12/15 13:27:22;;;;;;;25.55;13.32;;;1.90;99.90;;;;;;5124971;27;20043;-44
2022/12/15 13:30:00;;;;;;;18.30;11.00;;;2.00;99.90;;;;;;5106503;27;20051;-41
2022/12/15 13:32:32;;;;;;;20.58;12.25;;;2.00;99.90;;;;;;5115764;27;20043;-41
2022/12/15 13:35:13;;;;;;;17.92;12.45;;;2.00;99.90;;;;;;5114396;27;20047;-45
2022/12/15 13:37:54;;;;;;;17.45;12.02;;;2.00;99.90;;;;;;5112636;27;20407;-41
2022/12/15 13:40:32;;;;;;;23.08;11.35;;;2.00;99.90;;;;;;5115272;27;20052;-46
2022/12/15 13:43:03;;;;;;;16.77;12.27;;;2.00;99.90;;;;;;5115402;27;20079;-45
2022/12/15 13:45:54;;;;;;;19.77;12.20;;;1.90;99.90;;;;;;5117086;27;20054;-46
2022/12/15 13:48:30;;;;;;;17.70;11.45;;;1.80;99.90;;;;;;5114728;27;20043;-41
2022/12/15 13:51:10;;;;;;;17.27;11.63;;;1.80;99.90;;;;;;5132580;27;20089;-46
2022/12/15 13:53:45;;;;;;;20.55;12.30;;;1.70;99.90;;;;;;5122655;27;20821;-46
2022/12/15 13:56:11;;;;;;;16.77;11.48;;;1.70;99.90;;;;;;5114100;27;20123;-47
2022/12/15 13:58:51;;;;;;;18.83;12.38;;;1.70;99.90;;;;;;5115079;27;20447;-42
2022/12/15 14:01:26;;;;;;;17.70;10.52;;;1.70;99.90;;;;;;5096803;27;20512;-43
2022/12/15 14:04:05;;;;;;;20.90;11.98;;;1.70;99.90;;;;;;5114375;27;20062;-44
2022/12/15 14:06:37;;;;;;;18.23;11.20;;;1.70;99.90;;;;;;5129798;27;20126;-44
2022/12/15 14:09:04;;;;;;;17.75;11.00;;;1.60;99.90;;;;;;5120001;27;20065;-43
2022/12/15 14:11:33;;;;;;;19.70;12.35;;;1.60;99.90;;;;;;5100223;27;20421;-43
2022/12/15 14:14:00;;;;;;;19.63;11.93;;;1.60;99.90;;;;;;5121250;27;20089;-43
2022/12/15 14:16:29;;;;;;;19.02;11.65;;;1.60;99.90;;;;;;5103942;27;20505;-41
2022/12/15 14:19:13;;;;;;;17.30;10.93;;;1.60;99.90;;;;;;5121893;27;20043;-41
2022/12/15 14:21:46;;;;;;;18.63;11.50;;;1.60;99.90;;;;;;5134277;27;20047;-42
2022/12/15 14:24:23;;;;;;;16.90;10.10;;;1.60;99.90;;;;;;5130960;27;20449;-45
2022/12/15 14:26:49;;;;;;;15.00;10.38;;;1.60;99.90;;;;;;5119097;27;20103;-44
2022/12/15 14:29:16;;;;;;;15.63;11.05;;;1.60;99.90;;;;;;5132574;27;20725;-44
2022/12/15 14:31:46;;;;;;;15.65;10.52;;;1.60;99.90;;;;;;5115859;27;20080;-46
2022/12/15 14:34:19;;;;;;;14.65;10.73;;;1.50;99.90;;;;;;5114438;27;20047;-42
2022/12/15 14:36:45;;;;;;;23.20;12.50;;;1.60;99.90;;;;;;5120500;27;20046;-41
2022/12/15 14:39:32;;;;;;;18.88;10.20;;;1.50;99.90;;;;;;5115787;27;20539;-41
2022/12/15 14:42:00;;;;;;;22.52;12.77;;;1.60;99.90;;;;;;5125820;27;20074;-47
2022/12/15 14:44:38;;;;;;;18.58;11.85;;;1.60;99.90;;;;;;5136118;27;20413;-45
2022/12/15 14:47:14;;;;;;;28.20;12.20;;;1.60;99.90;;;;;;5128768;27;20070;-46
2022/12/15 14:49:44;;;;;;;21.05;12.25;;;1.60;99.90;;;;;;5115675;27;20161;-43
2022/12/15 14:52:38;;;;;;;17.25;11.50;;;1.60;99.90;;;;;;5121966;27;20051;-46
2022/12/15 14:55:23;;;;;;;;;;;1.50;99.90;;;;;;5119090;27;20059;-49
2022/12/15 14:57:51;;;;;;;21.63;14.32;;;1.40;99.90;;;;;;5128627;27;19923;-45
2022/12/15 15:00:46;;;;;;;24.20;13.98;;;1.50;99.90;;;;;;5127479;27;20058;-43
2022/12/15 15:03:14;;;;;;;30.60;14.63;;;1.50;99.90;;;;;;5114736;27;20055;-43
2022/12/15 15:05:50;;;;;;;20.65;13.48;;;1.50;99.90;;;;;;5113625;27;20055;-41
2022/12/15 15:08:25;;;;;;;33.83;21.85;;;1.40;99.90;;;;;;5096136;28;20051;-45
2022/12/15 15:10:53;;;;;;;35.35;27.08;;;1.40;99.90;;;;;;5114851;27;20130;-44
2022/12/15 15:13:24;;;;;;;32.47;25.15;;;1.40;99.90;;;;;;5117468;27;20074;-44
2022/12/15 15:16:06;;;;;;;45.00;33.63;;;1.40;99.90;;;;;;5124219;27;20737;-42
2022/12/15 15:18:32;;;;;;;22.88;14.80;;;1.40;99.90;;;;;;5139541;27;20046;-42
2022/12/15 15:21:03;;;;;;;24.75;14.23;;;1.30;99.90;;;;;;5139963;27;20057;-47